KWLD/WLD METAR and TAF weather

Enter ICAO airport designator
Station Type Date Time Source
KWLD METAR 2022/07/03 14:54 UTC NOAA

KWLD 031454Z AUTO 13009KT 10SM CLR 29/23 A3002 RMK AO2 SLP153 T02890228 58001 $


Station Type Date Time Source
KWLD Decoded METAR 2022/07/03 14:54 UTC NOAA

STROTHER FIELD, KS, United States (KWLD) 37-10N 97-02W 350M
Jul 03, 2022 - 10:54 AM EDT / 2022.07.03 1454 UTC
Wind: from the SE (130 degrees) at 10 MPH (9 KT):0
Visibility: 10 mile(s):0
Sky conditions: clear
Temperature: 84.0 F (28.9 C)
Dew Point: 73.0 F (22.8 C)
Relative Humidity: 69%
Pressure (altimeter): 30.02 in. Hg (1016 hPa)
Pressure tendency: 0.00 inches (0.1 hPa) lower than three hours ago
ob: KWLD 031454Z AUTO 13009KT 10SM CLR 29/23 A3002 RMK AO2 SLP153 T02890228 58001
cycle: 15

Station Type Date Time Source
KWLD TAF UTC NOAA

Error!

Example: see airport list